Terminal Aerodrome Forecast
Issued by NWS

Home | Current Version | Previous Version | Text Only | Print | Product List | Glossary On
Versions: 1 2 3 4 5 6 7 8 9 10 11 12 13 14 15 16 17 18 19 20 21 22 23 24
875
FTUS43 KDLH 170531
TAFHYR
TAF
KHYR 170531Z 1706/1806 20010KT P6SM BKN150 WS020/23042KT
     FM171100 20007KT P6SM VCSH OVC040
      TEMPO 1712/1716 5SM -SN OVC015
     FM171700 24008KT P6SM BKN080
     FM180100 25007KT P6SM SCT150=

USA.gov is the U.S. government's official web portal to all federal, state and local government web resources and services.